createdAt,value
2022-10-14T00:00:13.552Z,3.63
2022-10-14T00:00:44.905Z,3.60
2022-10-14T00:01:18.117Z,4.00
2022-10-14T00:01:49.619Z,3.95
2022-10-14T00:02:21.153Z,4.50
2022-10-14T00:02:52.734Z,4.27
2022-10-14T00:03:24.174Z,3.97
2022-10-14T00:03:55.674Z,3.58
2022-10-14T00:04:27.052Z,3.50
2022-10-14T00:04:58.387Z,3.97
2022-10-14T00:05:29.764Z,4.05
2022-10-14T00:06:04.479Z,3.83
2022-10-14T00:06:35.865Z,3.55
2022-10-14T00:07:07.268Z,3.97
2022-10-14T00:07:38.726Z,3.75
2022-10-14T00:08:10.131Z,3.83
2022-10-14T00:08:42.029Z,3.40
2022-10-14T00:09:13.457Z,4.50
2022-10-14T00:09:44.801Z,4.05
2022-10-14T00:10:16.265Z,3.80
2022-10-14T00:10:47.604Z,4.07
2022-10-14T00:11:21.015Z,3.40
2022-10-14T00:11:52.495Z,4.13
2022-10-14T00:12:23.923Z,3.40
2022-10-14T00:12:55.343Z,3.20
2022-10-14T00:13:26.697Z,4.07
2022-10-14T00:13:59.969Z,4.03
2022-10-14T00:14:31.313Z,3.65
2022-10-14T00:15:02.810Z,4.47
2022-10-14T00:15:43.111Z,4.03
2022-10-14T00:16:19.647Z,4.18
2022-10-14T00:16:52.677Z,3.50
2022-10-14T00:17:24.054Z,3.70
2022-10-14T00:17:55.411Z,3.40
2022-10-14T00:18:26.866Z,4.27
2022-10-14T00:18:58.637Z,3.78
2022-10-14T00:19:30.011Z,3.45
2022-10-14T00:20:01.458Z,3.67
2022-10-14T00:20:33.304Z,3.95
2022-10-14T00:21:05.101Z,2.88
2022-10-14T00:21:40.646Z,3.75
2022-10-14T00:22:12.072Z,3.80
2022-10-14T00:22:43.404Z,3.17
2022-10-14T00:23:14.793Z,3.30
2022-10-14T00:23:46.610Z,3.63
2022-10-14T00:24:18.034Z,3.70
2022-10-14T00:24:49.414Z,3.20
2022-10-14T00:25:20.808Z,3.67
2022-10-14T00:25:52.190Z,3.75
2022-10-14T00:26:25.333Z,3.95
2022-10-14T00:26:56.697Z,3.72
2022-10-14T00:27:28.027Z,3.42
2022-10-14T00:27:59.365Z,3.90
2022-10-14T00:28:30.946Z,3.30
2022-10-14T00:29:03.193Z,3.33
2022-10-14T00:29:34.861Z,3.45
2022-10-14T00:30:09.366Z,3.25
2022-10-14T00:30:40.712Z,3.47
2022-10-14T00:31:12.464Z,4.05
2022-10-14T00:31:43.831Z,3.25
2022-10-14T00:32:15.221Z,3.75
2022-10-14T00:32:46.884Z,3.60
2022-10-14T00:33:18.222Z,3.58
2022-10-14T00:33:49.771Z,3.33
2022-10-14T00:34:21.211Z,3.30
2022-10-14T00:34:52.566Z,5.00
2022-10-14T00:35:23.995Z,3.33
2022-10-14T00:35:56.445Z,3.40
2022-10-14T00:36:27.788Z,3.90
2022-10-14T00:36:59.179Z,4.70
2022-10-14T00:37:30.504Z,3.47
2022-10-14T00:38:01.887Z,3.33
2022-10-14T00:38:33.334Z,3.95
2022-10-14T00:39:04.717Z,3.55
2022-10-14T00:39:36.209Z,3.22
2022-10-14T00:40:07.847Z,3.55
2022-10-14T00:40:39.189Z,3.33
2022-10-14T00:41:11.426Z,2.63
2022-10-14T00:41:42.813Z,3.08
2022-10-14T00:42:15.195Z,3.30
2022-10-14T00:42:46.623Z,3.60
2022-10-14T00:43:18.431Z,3.63
2022-10-14T00:43:52.831Z,4.25
2022-10-14T00:44:24.175Z,3.30
2022-10-14T00:44:58.823Z,3.15
2022-10-14T00:45:30.217Z,3.53
2022-10-14T00:46:01.586Z,3.35
2022-10-14T00:46:34.524Z,3.00
2022-10-14T00:47:05.912Z,3.65
2022-10-14T00:47:37.548Z,3.65
2022-10-14T00:48:09.196Z,3.20
2022-10-14T00:48:40.578Z,3.65
2022-10-14T00:49:15.388Z,4.07
2022-10-14T00:49:46.842Z,3.70
2022-10-14T00:50:19.461Z,3.67
2022-10-14T00:50:53.140Z,3.22
2022-10-14T00:51:24.881Z,3.65
2022-10-14T00:52:25.826Z,3.45
2022-10-14T00:52:57.402Z,3.88
2022-10-14T00:53:28.782Z,3.15
2022-10-14T00:54:00.179Z,3.40
2022-10-14T00:54:33.886Z,3.15
2022-10-14T00:55:07.333Z,3.97
2022-10-14T00:55:38.963Z,3.17
2022-10-14T00:56:11.352Z,3.28
2022-10-14T00:56:44.728Z,3.72
2022-10-14T00:57:16.489Z,2.97
2022-10-14T00:57:47.858Z,3.50
2022-10-14T00:58:19.253Z,3.15
2022-10-14T00:58:51.146Z,2.70
2022-10-14T00:59:22.586Z,3.38
2022-10-14T00:59:56.743Z,3.60
2022-10-14T01:00:28.161Z,3.10
2022-10-14T01:00:59.592Z,3.00
2022-10-14T01:01:31.154Z,3.30
2022-10-14T01:02:02.701Z,3.30
2022-10-14T01:02:34.189Z,3.30
2022-10-14T01:03:20.007Z,3.03
2022-10-14T01:03:51.518Z,3.60
2022-10-14T01:04:22.880Z,3.08
2022-10-14T01:04:54.269Z,3.27
2022-10-14T01:05:31.488Z,3.05
2022-10-14T01:06:20.701Z,3.22
2022-10-14T01:06:55.106Z,3.10
2022-10-14T01:07:26.441Z,3.08
2022-10-14T01:08:00.799Z,3.50
2022-10-14T01:08:35.713Z,2.75
2022-10-14T01:09:07.020Z,3.10
2022-10-14T01:09:47.716Z,3.67
2022-10-14T01:10:30.611Z,3.40
2022-10-14T01:11:13.201Z,2.72
2022-10-14T01:12:16.629Z,2.88
2022-10-14T01:13:00.210Z,3.08
2022-10-14T01:13:33.204Z,2.95
2022-10-14T01:14:04.628Z,3.47
2022-10-14T01:14:48.144Z,3.28
2022-10-14T01:15:24.089Z,3.42
2022-10-14T01:16:14.614Z,2.67
2022-10-14T01:16:51.694Z,3.13
2022-10-14T01:17:25.806Z,3.83
2022-10-14T01:18:09.559Z,2.97
2022-10-14T01:18:53.188Z,2.72
2022-10-14T01:19:24.514Z,2.72
2022-10-14T01:19:58.879Z,2.70
2022-10-14T01:20:33.301Z,3.15
2022-10-14T01:21:17.732Z,3.53
2022-10-14T01:21:51.559Z,3.33
2022-10-14T01:22:35.443Z,2.92
2022-10-14T01:23:06.787Z,2.78
2022-10-14T01:23:44.271Z,2.72
2022-10-14T01:24:21.642Z,2.75
2022-10-14T01:24:59.018Z,3.00
2022-10-14T01:25:35.375Z,3.58
2022-10-14T01:26:29.302Z,2.83
2022-10-14T01:27:06.518Z,3.00
2022-10-14T01:27:47.255Z,3.00
2022-10-14T01:28:37.420Z,2.50
2022-10-14T01:29:14.868Z,3.00
2022-10-14T01:29:55.517Z,3.92
2022-10-14T01:30:29.911Z,2.90
2022-10-14T01:31:03.382Z,3.35
2022-10-14T01:31:36.410Z,2.63
2022-10-14T01:32:14.699Z,2.53
2022-10-14T01:32:46.029Z,2.92
2022-10-14T01:33:17.356Z,2.83
2022-10-14T01:33:51.877Z,3.13
2022-10-14T01:34:31.067Z,2.50
2022-10-14T01:35:02.437Z,3.38
2022-10-14T01:35:39.539Z,2.58
2022-10-14T01:36:10.866Z,2.83
2022-10-14T01:36:51.886Z,2.55
2022-10-14T01:37:26.476Z,3.00
2022-10-14T01:37:59.889Z,3.42
2022-10-14T01:38:36.352Z,2.47
2022-10-14T01:39:22.691Z,2.90
2022-10-14T01:39:57.185Z,3.00
2022-10-14T01:40:33.449Z,2.53
2022-10-14T01:41:11.701Z,2.72
2022-10-14T01:41:47.526Z,2.72
2022-10-14T01:42:21.818Z,3.50
2022-10-14T01:42:53.939Z,4.05
2022-10-14T01:43:27.210Z,3.20
2022-10-14T01:44:01.624Z,3.00
2022-10-14T01:44:33.823Z,2.43
2022-10-14T01:45:31.472Z,2.90
2022-10-14T01:46:04.485Z,2.92
2022-10-14T01:46:37.581Z,2.38
2022-10-14T01:47:09.465Z,2.95
2022-10-14T01:47:41.384Z,3.15
2022-10-14T01:48:14.459Z,3.10
2022-10-14T01:48:47.407Z,2.40
2022-10-14T01:49:40.109Z,2.42
2022-10-14T01:50:14.512Z,4.00
2022-10-14T01:50:47.441Z,2.60
2022-10-14T01:51:22.203Z,2.50
2022-10-14T01:51:56.769Z,3.33
2022-10-14T01:52:34.122Z,2.70
2022-10-14T01:53:07.471Z,2.72
2022-10-14T01:53:42.345Z,2.60
2022-10-14T01:54:20.439Z,2.88
2022-10-14T01:54:53.351Z,3.05
2022-10-14T01:55:26.694Z,2.78
2022-10-14T01:55:58.544Z,2.53
2022-10-14T01:56:31.151Z,2.70
2022-10-14T01:57:06.066Z,2.50
2022-10-14T01:57:38.946Z,2.40
2022-10-14T01:58:12.165Z,3.10
2022-10-14T01:58:43.912Z,2.75
2022-10-14T01:59:16.835Z,2.38
2022-10-14T01:59:49.160Z,2.83
2022-10-14T02:00:20.586Z,2.47
2022-10-14T02:00:51.919Z,2.30
2022-10-14T02:01:24.207Z,2.70
2022-10-14T02:01:55.646Z,2.42
2022-10-14T02:02:27.052Z,2.63
2022-10-14T02:02:58.482Z,2.63
2022-10-14T02:03:40.010Z,2.58
2022-10-14T02:04:29.573Z,2.83
2022-10-14T02:05:00.968Z,2.92
2022-10-14T02:05:37.060Z,2.65
2022-10-14T02:06:11.357Z,2.75
2022-10-14T02:06:43.752Z,3.40
2022-10-14T02:07:19.268Z,2.63
2022-10-14T02:07:56.582Z,2.90
2022-10-14T02:08:41.278Z,2.70
2022-10-14T02:09:32.328Z,2.53
2022-10-14T02:10:03.681Z,2.25
2022-10-14T02:10:37.814Z,3.10
2022-10-14T02:11:11.954Z,2.60
2022-10-14T02:12:06.632Z,2.95
2022-10-14T02:12:38.080Z,2.55
2022-10-14T02:13:16.473Z,2.42
2022-10-14T02:13:57.076Z,3.03
2022-10-14T02:14:37.838Z,2.45
2022-10-14T02:15:12.501Z,3.10
2022-10-14T02:15:57.968Z,2.65
2022-10-14T02:16:36.844Z,2.60
2022-10-14T02:17:21.682Z,2.72
2022-10-14T02:18:10.068Z,2.55
2022-10-14T02:18:48.311Z,2.45
2022-10-14T02:19:28.804Z,3.60
2022-10-14T02:20:19.045Z,2.40
2022-10-14T02:20:56.261Z,2.63
2022-10-14T02:21:31.343Z,2.73
2022-10-14T02:22:13.837Z,2.22
2022-10-14T02:22:48.401Z,2.73
2022-10-14T02:23:21.715Z,2.92
2022-10-14T02:23:55.667Z,2.78
2022-10-14T02:24:35.564Z,2.65
2022-10-14T02:25:09.344Z,3.00
2022-10-14T02:25:41.453Z,2.85
2022-10-14T02:26:13.413Z,2.65
2022-10-14T02:26:45.145Z,2.33
2022-10-14T02:27:18.279Z,2.75
2022-10-14T02:27:50.503Z,2.58
2022-10-14T02:28:23.462Z,2.63
2022-10-14T02:28:56.747Z,2.53
2022-10-14T02:29:29.284Z,2.67
2022-10-14T02:30:01.501Z,2.80
2022-10-14T02:30:33.948Z,2.70
2022-10-14T02:31:07.954Z,2.80
2022-10-14T02:31:39.848Z,2.75
2022-10-14T02:32:12.926Z,3.00
2022-10-14T02:32:44.865Z,2.63
2022-10-14T02:33:16.734Z,2.80
2022-10-14T02:33:51.778Z,2.55
2022-10-14T02:34:24.166Z,2.60
2022-10-14T02:34:57.599Z,2.10
2022-10-14T02:35:30.270Z,3.17
2022-10-14T02:36:02.305Z,3.20
2022-10-14T02:36:34.258Z,3.10
2022-10-14T02:37:06.839Z,2.80
2022-10-14T02:37:39.300Z,2.83
2022-10-14T02:38:10.771Z,3.35
2022-10-14T02:38:43.145Z,2.85
2022-10-14T02:39:17.900Z,2.17
2022-10-14T02:39:55.756Z,2.53
2022-10-14T02:40:29.392Z,2.95
2022-10-14T02:41:01.940Z,2.50
2022-10-14T02:41:35.122Z,2.65
2022-10-14T02:42:06.601Z,2.42
2022-10-14T02:42:37.950Z,2.63
2022-10-14T02:43:10.139Z,2.70
2022-10-14T02:43:41.511Z,2.63
2022-10-14T02:44:12.880Z,2.40
2022-10-14T02:44:53.464Z,2.80
2022-10-14T02:45:25.988Z,2.67
2022-10-14T02:45:58.384Z,2.65
2022-10-14T02:46:29.777Z,2.93
2022-10-14T02:47:01.164Z,2.35
2022-10-14T02:47:32.506Z,2.55
2022-10-14T02:48:04.351Z,2.55
2022-10-14T02:48:35.682Z,2.80
2022-10-14T02:49:07.059Z,2.50
2022-10-14T02:49:38.415Z,2.97
2022-10-14T02:50:10.053Z,2.47
2022-10-14T02:50:41.741Z,2.97
2022-10-14T02:51:13.065Z,2.75
2022-10-14T02:51:44.400Z,2.60
2022-10-14T02:52:15.945Z,2.42
2022-10-14T02:52:47.352Z,2.63
2022-10-14T02:53:18.817Z,3.17
2022-10-14T02:53:50.166Z,3.30
2022-10-14T02:54:21.505Z,3.00
2022-10-14T02:54:52.831Z,2.60
2022-10-14T02:55:24.408Z,2.40
2022-10-14T02:55:55.742Z,2.67
2022-10-14T02:56:27.187Z,2.40
2022-10-14T02:56:58.603Z,2.70
2022-10-14T02:57:29.956Z,2.75
2022-10-14T02:58:01.306Z,2.60
2022-10-14T02:58:32.839Z,2.92
2022-10-14T02:59:04.336Z,2.55
2022-10-14T02:59:35.672Z,2.13
2022-10-14T03:00:07.292Z,2.22
2022-10-14T03:00:38.688Z,2.83
2022-10-14T03:01:10.492Z,3.47
2022-10-14T03:01:41.849Z,2.53
2022-10-14T03:02:13.354Z,3.25
2022-10-14T03:02:44.805Z,2.83
2022-10-14T03:03:16.230Z,2.85
2022-10-14T03:03:47.568Z,3.00
2022-10-14T03:04:18.940Z,2.30
2022-10-14T03:04:50.292Z,1.98
2022-10-14T03:05:21.675Z,2.67
2022-10-14T03:05:53.093Z,2.78
2022-10-14T03:06:24.637Z,2.15
2022-10-14T03:06:56.036Z,2.10
2022-10-14T03:07:27.425Z,2.42
2022-10-14T03:07:58.763Z,2.83
2022-10-14T03:08:30.148Z,2.50
2022-10-14T03:09:01.485Z,2.90
2022-10-14T03:09:32.818Z,2.70
2022-10-14T03:10:04.508Z,3.03
2022-10-14T03:10:35.830Z,2.65
2022-10-14T03:11:07.213Z,2.53
2022-10-14T03:11:38.557Z,2.65
2022-10-14T03:12:09.948Z,2.47
2022-10-14T03:12:41.351Z,2.72
2022-10-14T03:13:12.721Z,2.05
2022-10-14T03:13:44.111Z,2.70
2022-10-14T03:14:15.549Z,2.70
2022-10-14T03:14:46.885Z,2.83
2022-10-14T03:15:18.243Z,2.30
2022-10-14T03:15:49.840Z,2.28
2022-10-14T03:16:21.237Z,2.08
2022-10-14T03:16:52.616Z,1.90
2022-10-14T03:17:24.014Z,1.88
2022-10-14T03:17:55.464Z,3.87
2022-10-14T03:18:26.801Z,2.72
2022-10-14T03:18:58.159Z,2.30
2022-10-14T03:19:29.517Z,2.42
2022-10-14T03:20:00.844Z,2.80
2022-10-14T03:20:32.224Z,3.40
2022-10-14T03:21:03.586Z,2.45
2022-10-14T03:21:34.942Z,2.55
2022-10-14T03:22:06.280Z,2.05
2022-10-14T03:22:37.617Z,2.55
2022-10-14T03:23:08.974Z,2.30
2022-10-14T03:23:40.301Z,2.38
2022-10-14T03:24:11.713Z,2.30
2022-10-14T03:24:43.056Z,2.00
2022-10-14T03:25:14.412Z,2.42
2022-10-14T03:25:45.907Z,2.40
2022-10-14T03:26:17.230Z,2.33
2022-10-14T03:26:48.581Z,1.98
2022-10-14T03:27:19.968Z,2.60
2022-10-14T03:27:51.337Z,2.40
2022-10-14T03:28:22.701Z,2.30
2022-10-14T03:28:54.152Z,3.13
2022-10-14T03:29:25.527Z,2.60
2022-10-14T03:29:56.866Z,2.10
2022-10-14T03:30:28.217Z,2.55
2022-10-14T03:30:59.577Z,2.53
2022-10-14T03:31:30.940Z,2.20
2022-10-14T03:32:02.387Z,2.42
2022-10-14T03:32:33.780Z,2.30
2022-10-14T03:33:05.233Z,2.22
2022-10-14T03:33:36.629Z,2.33
2022-10-14T03:34:08.011Z,2.50
2022-10-14T03:34:39.432Z,2.40
2022-10-14T03:35:10.781Z,2.50
2022-10-14T03:35:42.106Z,3.10
2022-10-14T03:36:13.564Z,2.85
2022-10-14T03:36:44.887Z,2.60
2022-10-14T03:37:16.264Z,2.17
2022-10-14T03:37:47.620Z,2.08
2022-10-14T03:38:19.005Z,2.10
2022-10-14T03:38:50.389Z,2.25
2022-10-14T03:39:21.730Z,2.05
2022-10-14T03:39:53.370Z,2.15
2022-10-14T03:40:24.884Z,2.17
2022-10-14T03:40:56.280Z,2.20
2022-10-14T03:41:27.627Z,2.17
2022-10-14T03:41:58.954Z,1.95
2022-10-14T03:42:30.347Z,1.70
2022-10-14T03:43:01.688Z,2.50
2022-10-14T03:43:33.051Z,2.60
2022-10-14T03:44:04.444Z,2.22
2022-10-14T03:44:35.787Z,2.50
2022-10-14T03:45:07.280Z,2.35
2022-10-14T03:45:38.666Z,2.40
2022-10-14T03:46:09.991Z,2.35
2022-10-14T03:46:41.380Z,2.33
2022-10-14T03:47:12.712Z,2.03
2022-10-14T03:47:44.102Z,2.45
2022-10-14T03:48:15.447Z,2.40
2022-10-14T03:48:46.818Z,2.50
2022-10-14T03:49:18.180Z,2.03
2022-10-14T03:49:49.540Z,2.97
2022-10-14T03:50:21.041Z,3.05
2022-10-14T03:50:52.427Z,1.98
2022-10-14T03:51:23.762Z,2.60
2022-10-14T03:51:55.099Z,2.30
2022-10-14T03:52:26.570Z,1.80
2022-10-14T03:52:57.937Z,2.20
2022-10-14T03:53:29.330Z,2.05
2022-10-14T03:54:00.933Z,2.35
2022-10-14T03:54:32.333Z,3.03
2022-10-14T03:55:03.844Z,2.10
2022-10-14T03:55:35.200Z,2.72
2022-10-14T03:56:06.840Z,2.08
2022-10-14T03:56:38.176Z,2.47
2022-10-14T03:57:09.523Z,2.25
2022-10-14T03:57:40.848Z,2.20
2022-10-14T03:58:12.597Z,3.05
2022-10-14T03:58:43.935Z,2.83
2022-10-14T03:59:15.366Z,2.42
2022-10-14T03:59:46.751Z,2.30
2022-10-14T04:00:18.356Z,2.75
2022-10-14T04:00:49.738Z,2.23
2022-10-14T04:01:21.129Z,2.30
2022-10-14T04:01:52.549Z,2.50
2022-10-14T04:02:24.284Z,1.95
2022-10-14T04:02:55.986Z,2.05
2022-10-14T04:03:27.422Z,1.90
2022-10-14T04:03:58.743Z,2.35
2022-10-14T04:04:30.153Z,1.92
2022-10-14T04:05:01.488Z,1.92
2022-10-14T04:05:32.855Z,2.33
2022-10-14T04:06:04.365Z,2.05
2022-10-14T04:06:35.746Z,2.53
2022-10-14T04:07:07.129Z,2.40
2022-10-14T04:07:38.864Z,1.70
2022-10-14T04:08:10.231Z,2.15
2022-10-14T04:08:41.955Z,2.10
2022-10-14T04:09:13.354Z,2.25
2022-10-14T04:09:44.732Z,1.88
2022-10-14T04:10:16.209Z,2.72
2022-10-14T04:10:51.579Z,2.55
2022-10-14T04:11:22.931Z,2.72
2022-10-14T04:11:54.287Z,1.63
2022-10-14T04:12:25.700Z,2.20
2022-10-14T04:12:57.024Z,2.28
2022-10-14T04:13:28.375Z,2.35
2022-10-14T04:13:59.909Z,2.35
2022-10-14T04:14:31.253Z,2.40
2022-10-14T04:15:02.729Z,1.95
2022-10-14T04:15:35.094Z,1.98
2022-10-14T04:16:07.959Z,2.15
2022-10-14T04:16:39.352Z,2.67
2022-10-14T04:17:10.736Z,1.92
2022-10-14T04:17:42.108Z,1.92
2022-10-14T04:18:13.454Z,1.80
2022-10-14T04:18:44.831Z,1.92
2022-10-14T04:19:16.380Z,2.63
2022-10-14T04:19:47.770Z,2.08
2022-10-14T04:20:19.254Z,2.03
2022-10-14T04:20:50.648Z,2.80
2022-10-14T04:21:22.021Z,2.67
2022-10-14T04:21:53.385Z,2.33
2022-10-14T04:22:25.020Z,2.47
2022-10-14T04:22:58.964Z,2.30
2022-10-14T04:23:30.392Z,2.50
2022-10-14T04:24:06.066Z,2.28
2022-10-14T04:24:39.571Z,2.85
2022-10-14T04:25:11.004Z,2.85
2022-10-14T04:25:42.336Z,2.70
2022-10-14T04:26:13.723Z,2.95
2022-10-14T04:26:45.101Z,2.30
2022-10-14T04:27:16.799Z,2.30
2022-10-14T04:27:48.390Z,2.38
2022-10-14T04:28:19.771Z,2.40
2022-10-14T04:28:51.192Z,3.20
2022-10-14T04:29:22.599Z,2.50
2022-10-14T04:29:53.977Z,3.10
2022-10-14T04:30:25.329Z,2.47
2022-10-14T04:30:56.709Z,2.60
2022-10-14T04:31:28.051Z,2.50
2022-10-14T04:31:59.420Z,2.65
2022-10-14T04:32:30.818Z,2.17
2022-10-14T04:33:02.195Z,2.08
2022-10-14T04:33:33.582Z,2.45
2022-10-14T04:34:04.928Z,2.60
2022-10-14T04:34:36.255Z,1.73
2022-10-14T04:35:07.839Z,2.17
2022-10-14T04:35:39.241Z,2.75
2022-10-14T04:36:10.586Z,2.10
2022-10-14T04:36:41.935Z,2.05
2022-10-14T04:37:13.337Z,2.03
2022-10-14T04:37:44.662Z,1.98
2022-10-14T04:38:16.016Z,2.50
2022-10-14T04:38:47.345Z,2.78
2022-10-14T04:39:18.825Z,2.25
2022-10-14T04:39:50.165Z,2.42
2022-10-14T04:40:21.553Z,2.55
2022-10-14T04:40:52.912Z,2.65
2022-10-14T04:41:24.305Z,2.43
2022-10-14T04:41:55.658Z,2.60
2022-10-14T04:42:27.035Z,2.58
2022-10-14T04:42:58.489Z,2.33
2022-10-14T04:43:29.870Z,2.42
2022-10-14T04:44:01.264Z,2.45
2022-10-14T04:44:32.643Z,2.25
2022-10-14T04:45:04.170Z,2.15
2022-10-14T04:45:35.570Z,2.17
2022-10-14T04:46:06.908Z,2.20
2022-10-14T04:46:38.279Z,2.33
2022-10-14T04:47:09.632Z,2.13
2022-10-14T04:47:44.973Z,2.65
2022-10-14T04:48:19.046Z,3.17
2022-10-14T04:48:50.387Z,2.20
2022-10-14T04:49:21.927Z,2.20
2022-10-14T04:49:53.260Z,2.40
2022-10-14T04:50:24.635Z,2.33
2022-10-14T04:50:56.031Z,2.40
2022-10-14T04:51:27.369Z,2.83
2022-10-14T04:51:58.748Z,2.80
2022-10-14T04:52:30.083Z,2.47
2022-10-14T04:53:01.476Z,2.38
2022-10-14T04:53:32.868Z,2.15
2022-10-14T04:54:04.350Z,2.67
2022-10-14T04:54:35.689Z,2.22
2022-10-14T04:55:07.177Z,2.30
2022-10-14T04:55:38.565Z,3.35
2022-10-14T04:56:09.937Z,2.70
2022-10-14T04:56:41.280Z,2.78
2022-10-14T04:57:12.675Z,2.25
2022-10-14T04:57:44.059Z,2.17
2022-10-14T04:58:16.006Z,1.95
2022-10-14T04:58:47.334Z,2.40
2022-10-14T04:59:18.726Z,2.85
2022-10-14T04:59:50.120Z,2.30
2022-10-14T05:00:21.505Z,2.42
2022-10-14T05:00:54.015Z,2.80
2022-10-14T05:01:27.260Z,2.25
2022-10-14T05:02:01.770Z,1.88
2022-10-14T05:02:33.166Z,2.20
2022-10-14T05:03:04.546Z,2.35
2022-10-14T05:03:35.947Z,2.70
2022-10-14T05:04:07.368Z,2.47
2022-10-14T05:04:38.727Z,2.23
2022-10-14T05:05:10.093Z,2.95
2022-10-14T05:05:41.468Z,2.42
2022-10-14T05:06:12.745Z,2.08
2022-10-14T05:06:44.233Z,2.33
2022-10-14T05:07:15.620Z,2.60
2022-10-14T05:07:47.002Z,1.67
2022-10-14T05:08:18.500Z,2.40
2022-10-14T05:08:49.936Z,2.55
2022-10-14T05:09:21.314Z,3.35
2022-10-14T05:09:56.843Z,2.35
2022-10-14T05:10:28.404Z,1.63
2022-10-14T05:10:59.989Z,2.47
2022-10-14T05:11:31.411Z,2.10
2022-10-14T05:12:02.813Z,2.20
2022-10-14T05:12:34.133Z,2.28
2022-10-14T05:13:05.492Z,2.25
2022-10-14T05:13:36.817Z,2.30
2022-10-14T05:14:08.214Z,2.08
2022-10-14T05:14:39.675Z,2.13
2022-10-14T05:15:11.028Z,2.13
2022-10-14T05:15:42.377Z,2.20
2022-10-14T05:16:13.749Z,2.50
2022-10-14T05:16:45.098Z,2.47
2022-10-14T05:17:16.408Z,2.17
2022-10-14T05:17:47.865Z,2.03
2022-10-14T05:18:19.231Z,1.88
2022-10-14T05:18:51.187Z,2.00
2022-10-14T05:19:22.603Z,2.20
2022-10-14T05:19:53.988Z,3.58
2022-10-14T05:20:25.598Z,2.45
2022-10-14T05:20:59.948Z,1.88
2022-10-14T05:21:31.315Z,2.03
2022-10-14T05:22:02.725Z,2.30
2022-10-14T05:22:34.053Z,2.35
2022-10-14T05:23:05.782Z,1.60
2022-10-14T05:23:37.136Z,2.47
2022-10-14T05:24:08.623Z,2.33
2022-10-14T05:24:40.045Z,2.30
2022-10-14T05:25:11.407Z,1.80
2022-10-14T05:25:42.798Z,2.10
2022-10-14T05:26:14.217Z,2.17
2022-10-14T05:26:45.729Z,3.45
2022-10-14T05:27:17.319Z,2.03
2022-10-14T05:27:48.659Z,2.20
2022-10-14T05:28:20.131Z,2.33
2022-10-14T05:28:52.023Z,2.80
2022-10-14T05:29:23.401Z,2.33
2022-10-14T05:29:54.734Z,2.40
2022-10-14T05:30:29.614Z,2.92
2022-10-14T05:31:03.995Z,2.13
2022-10-14T05:31:35.360Z,2.15
2022-10-14T05:32:06.683Z,2.90
2022-10-14T05:32:38.025Z,2.22
2022-10-14T05:33:09.655Z,1.93
2022-10-14T05:33:41.001Z,2.45
2022-10-14T05:34:12.416Z,2.10
2022-10-14T05:34:43.765Z,2.67
2022-10-14T05:35:15.272Z,2.67
2022-10-14T05:35:58.690Z,1.92
2022-10-14T05:36:30.922Z,2.45
2022-10-14T05:37:02.628Z,2.33
2022-10-14T05:37:33.976Z,1.73
2022-10-14T05:38:05.342Z,1.90
2022-10-14T05:38:36.713Z,2.17
2022-10-14T05:39:08.581Z,2.40
2022-10-14T05:39:39.935Z,2.30
2022-10-14T05:40:11.398Z,2.13
2022-10-14T05:40:42.728Z,2.80
2022-10-14T05:41:14.087Z,2.17
2022-10-14T05:41:45.456Z,2.33
2022-10-14T05:42:16.841Z,2.17
2022-10-14T05:42:48.159Z,1.83
2022-10-14T05:43:19.631Z,1.88
2022-10-14T05:43:51.138Z,2.10
2022-10-14T05:44:22.493Z,2.67
2022-10-14T05:44:53.841Z,2.13
2022-10-14T05:45:25.225Z,2.08
2022-10-14T05:45:56.643Z,2.50
2022-10-14T05:46:28.029Z,2.13
2022-10-14T05:46:59.470Z,1.80
2022-10-14T05:47:30.822Z,2.47
2022-10-14T05:48:02.197Z,1.92
2022-10-14T05:48:33.537Z,1.67
2022-10-14T05:49:04.981Z,2.15
2022-10-14T05:49:36.302Z,2.20
2022-10-14T05:50:07.782Z,2.10
2022-10-14T05:50:39.186Z,1.80
2022-10-14T05:51:10.593Z,2.17
2022-10-14T05:51:41.963Z,2.08
2022-10-14T05:52:13.324Z,2.10
2022-10-14T05:52:44.711Z,1.90
2022-10-14T05:53:16.202Z,1.92
2022-10-14T05:53:47.784Z,2.25
2022-10-14T05:54:19.271Z,2.10
2022-10-14T05:54:50.606Z,2.30
2022-10-14T05:55:21.957Z,2.05
2022-10-14T05:55:53.339Z,2.00
2022-10-14T05:56:24.690Z,1.98
2022-10-14T05:56:56.813Z,2.13
2022-10-14T05:57:28.258Z,2.00
2022-10-14T05:57:59.867Z,2.47
2022-10-14T05:58:31.585Z,2.20
2022-10-14T05:59:02.955Z,2.45
2022-10-14T05:59:34.260Z,2.50
2022-10-14T06:00:06.125Z,2.45
2022-10-14T06:00:37.507Z,2.75
2022-10-14T06:01:09.823Z,2.10
2022-10-14T06:01:41.391Z,2.40
2022-10-14T06:02:12.752Z,2.45
2022-10-14T06:02:46.624Z,2.05
2022-10-14T06:03:18.281Z,2.38
2022-10-14T06:03:50.127Z,2.55
2022-10-14T06:04:21.588Z,2.15
2022-10-14T06:04:52.991Z,1.95
2022-10-14T06:05:24.456Z,2.50
2022-10-14T06:05:55.936Z,2.83
2022-10-14T06:06:29.094Z,2.80
2022-10-14T06:07:00.623Z,2.35
2022-10-14T06:07:31.988Z,2.20
2022-10-14T06:08:03.355Z,2.25
2022-10-14T06:08:34.770Z,1.80
2022-10-14T06:09:11.022Z,2.08
2022-10-14T06:09:42.874Z,3.20
2022-10-14T06:10:14.265Z,2.78
2022-10-14T06:10:45.746Z,2.05
2022-10-14T06:11:17.139Z,2.50
2022-10-14T06:11:48.506Z,2.13
2022-10-14T06:12:20.199Z,1.85
2022-10-14T06:12:51.843Z,2.10
2022-10-14T06:13:23.385Z,1.67
2022-10-14T06:13:54.755Z,2.35
2022-10-14T06:14:26.084Z,2.50
2022-10-14T06:14:57.410Z,2.10
2022-10-14T06:15:28.722Z,1.92
2022-10-14T06:16:03.958Z,2.28
2022-10-14T06:16:35.297Z,2.15
2022-10-14T06:17:06.840Z,2.78
2022-10-14T06:17:38.144Z,2.25
2022-10-14T06:18:09.515Z,2.35
2022-10-14T06:18:40.867Z,2.25
2022-10-14T06:19:12.251Z,2.13
2022-10-14T06:19:43.586Z,2.50
2022-10-14T06:20:14.930Z,2.30
2022-10-14T06:20:51.433Z,2.38
2022-10-14T06:21:22.786Z,2.00
2022-10-14T06:21:54.139Z,2.30
2022-10-14T06:22:25.489Z,2.83
2022-10-14T06:22:58.404Z,1.98
2022-10-14T06:23:29.988Z,2.42
2022-10-14T06:24:01.365Z,3.38
2022-10-14T06:24:32.724Z,2.72
2022-10-14T06:25:04.721Z,2.88
2022-10-14T06:25:36.369Z,3.20
2022-10-14T06:26:08.040Z,1.80
2022-10-14T06:26:39.392Z,2.95
2022-10-14T06:27:10.756Z,3.70
2022-10-14T06:27:42.104Z,2.28
2022-10-14T06:28:13.452Z,2.20
2022-10-14T06:28:44.921Z,2.53
2022-10-14T06:29:16.893Z,2.57
2022-10-14T06:29:48.322Z,2.92
2022-10-14T06:30:19.759Z,2.13
2022-10-14T06:30:51.666Z,2.47
2022-10-14T06:31:22.967Z,2.70
2022-10-14T06:31:54.282Z,2.97
2022-10-14T06:32:25.673Z,2.63
2022-10-14T06:32:57.137Z,2.83
2022-10-14T06:33:28.992Z,2.67
2022-10-14T06:34:00.547Z,2.63
2022-10-14T06:34:31.938Z,2.13
2022-10-14T06:35:03.339Z,2.85
2022-10-14T06:35:34.765Z,3.72
2022-10-14T06:36:06.349Z,2.53
2022-10-14T06:36:37.720Z,2.83
2022-10-14T06:37:09.087Z,2.85
2022-10-14T06:37:40.620Z,2.25
2022-10-14T06:38:12.027Z,2.53
2022-10-14T06:38:43.446Z,1.77
2022-10-14T06:39:14.863Z,3.03
2022-10-14T06:39:46.199Z,2.53
2022-10-14T06:40:17.676Z,2.55
2022-10-14T06:40:52.409Z,3.07
2022-10-14T06:41:24.053Z,3.00
2022-10-14T06:41:55.412Z,2.92
2022-10-14T06:42:27.087Z,2.35
2022-10-14T06:42:59.225Z,2.60
2022-10-14T06:43:30.593Z,2.80
2022-10-14T06:44:01.940Z,3.20
2022-10-14T06:44:33.272Z,2.72
2022-10-14T06:45:05.692Z,2.78
2022-10-14T06:45:37.059Z,2.70
2022-10-14T06:46:08.450Z,2.65
2022-10-14T06:46:39.790Z,2.58
2022-10-14T06:47:11.148Z,2.35
2022-10-14T06:47:42.517Z,2.63
2022-10-14T06:48:13.893Z,2.25
2022-10-14T06:48:50.024Z,2.50
2022-10-14T06:49:21.746Z,2.25
2022-10-14T06:49:53.085Z,1.98
2022-10-14T06:50:24.545Z,3.13
2022-10-14T06:50:58.166Z,2.13
2022-10-14T06:51:29.499Z,2.28
2022-10-14T06:52:00.874Z,3.08
2022-10-14T06:52:32.250Z,2.90
2022-10-14T06:53:03.602Z,1.83
2022-10-14T06:53:35.074Z,2.20
2022-10-14T06:54:06.707Z,2.22
2022-10-14T06:54:39.437Z,2.20
2022-10-14T06:55:11.847Z,2.08
2022-10-14T06:55:43.218Z,2.17
2022-10-14T06:56:14.552Z,2.83
2022-10-14T06:56:45.914Z,2.22
2022-10-14T06:57:17.404Z,2.70
2022-10-14T06:57:48.720Z,2.47
2022-10-14T06:58:20.053Z,2.38
2022-10-14T06:58:54.844Z,1.95
2022-10-14T06:59:26.423Z,2.40
2022-10-14T06:59:57.796Z,2.27
2022-10-14T07:00:29.161Z,2.90
2022-10-14T07:01:01.155Z,2.13
2022-10-14T07:01:32.591Z,2.25
2022-10-14T07:02:04.029Z,2.30
2022-10-14T07:02:37.239Z,2.55
2022-10-14T07:03:08.619Z,2.38
2022-10-14T07:03:39.968Z,2.10
2022-10-14T07:04:11.463Z,1.73
2022-10-14T07:04:42.824Z,2.25
2022-10-14T07:05:14.202Z,2.55
2022-10-14T07:05:45.580Z,2.45
2022-10-14T07:06:16.888Z,2.95
2022-10-14T07:06:48.343Z,2.97
2022-10-14T07:07:19.661Z,2.60
2022-10-14T07:07:51.057Z,2.57
2022-10-14T07:08:22.543Z,2.10
2022-10-14T07:08:53.879Z,2.55
2022-10-14T07:09:25.236Z,2.67
2022-10-14T07:09:56.599Z,2.42
2022-10-14T07:10:27.944Z,2.08
2022-10-14T07:10:59.377Z,2.20
2022-10-14T07:11:31.121Z,1.92
2022-10-14T07:12:02.546Z,2.40
2022-10-14T07:12:33.879Z,2.43
2022-10-14T07:13:05.255Z,2.72
2022-10-14T07:13:36.604Z,2.10
2022-10-14T07:14:08.455Z,3.25
2022-10-14T07:14:39.879Z,3.25
2022-10-14T07:15:11.228Z,2.33